createdAt,value
2023-04-01T00:00:09.443Z,97177.00
2023-04-01T00:01:45.951Z,97189.00
2023-04-01T00:03:20.664Z,97189.00
2023-04-01T00:04:54.467Z,97188.00
2023-04-01T00:06:28.270Z,97182.00
2023-04-01T00:08:01.981Z,97183.00
2023-04-01T00:09:36.114Z,97172.00
2023-04-01T00:11:09.841Z,97183.00
2023-04-01T00:12:45.487Z,97185.00
2023-04-01T00:14:22.160Z,97181.00
2023-04-01T00:15:57.610Z,97183.00
2023-04-01T00:17:31.781Z,97181.00
2023-04-01T00:19:05.715Z,97181.00
2023-04-01T00:20:39.853Z,97178.00
2023-04-01T00:22:13.682Z,97192.00
2023-04-01T00:23:47.445Z,97182.00
2023-04-01T00:25:20.300Z,97183.00
2023-04-01T00:26:54.040Z,97174.00
2023-04-01T00:28:30.798Z,97166.00
2023-04-01T00:30:05.755Z,97180.00
2023-04-01T00:31:39.653Z,97177.00
2023-04-01T00:33:13.842Z,97172.00
2023-04-01T00:34:48.056Z,97169.00
2023-04-01T00:36:24.349Z,97182.00
2023-04-01T00:37:58.322Z,97170.00
2023-04-01T00:39:32.709Z,97167.00
2023-04-01T00:41:06.646Z,97160.00
2023-04-01T00:42:40.659Z,97163.00
2023-04-01T00:44:19.785Z,97169.00
2023-04-01T00:45:53.682Z,97168.00
2023-04-01T00:47:29.715Z,97162.00
2023-04-01T00:49:03.700Z,97173.00
2023-04-01T00:50:41.666Z,97170.00
2023-04-01T00:52:20.193Z,97164.00
2023-04-01T00:53:58.128Z,97172.00
2023-04-01T00:55:37.874Z,97168.00
2023-04-01T00:57:16.609Z,97167.00
2023-04-01T00:58:57.253Z,97162.00
2023-04-01T01:00:51.559Z,97161.00
2023-04-01T01:02:25.966Z,97163.00
2023-04-01T01:03:59.198Z,97165.00
2023-04-01T01:06:00.717Z,97171.00
2023-04-01T01:07:45.466Z,97167.00
2023-04-01T01:09:47.246Z,97165.00
2023-04-01T01:11:42.540Z,97170.00
2023-04-01T01:13:27.500Z,97170.00
2023-04-01T01:15:13.843Z,97166.00
2023-04-01T01:16:57.368Z,97169.00
2023-04-01T01:18:39.976Z,97169.00
2023-04-01T01:21:08.915Z,97170.00
2023-04-01T01:23:18.657Z,97148.00
2023-04-01T01:25:12.752Z,97154.00
2023-04-01T01:26:57.993Z,97155.00
2023-04-01T01:28:49.750Z,97155.00
2023-04-01T01:30:39.483Z,97149.00
2023-04-01T01:32:32.607Z,97156.00
2023-04-01T01:34:21.537Z,97148.00
2023-04-01T01:36:06.426Z,97150.00
2023-04-01T01:37:42.960Z,97146.00
2023-04-01T01:39:27.532Z,97148.00
2023-04-01T01:41:04.934Z,97150.00
2023-04-01T01:42:44.169Z,97146.00
2023-04-01T01:44:19.643Z,97150.00
2023-04-01T01:45:59.132Z,97145.00
2023-04-01T01:47:34.421Z,97150.00
2023-04-01T01:49:14.015Z,97137.00
2023-04-01T01:50:49.427Z,97145.00
2023-04-01T01:52:24.157Z,97138.00
2023-04-01T01:53:58.079Z,97144.00
2023-04-01T01:55:34.948Z,97133.00
2023-04-01T01:57:11.960Z,97139.00
2023-04-01T01:58:53.551Z,97147.00
2023-04-01T02:00:29.020Z,97135.00
2023-04-01T02:02:08.696Z,97138.00
2023-04-01T02:03:45.221Z,97130.00
2023-04-01T02:05:25.129Z,97143.00
2023-04-01T02:07:04.997Z,97141.00
2023-04-01T02:08:46.509Z,97142.00
2023-04-01T02:10:24.176Z,97141.00
2023-04-01T02:12:03.079Z,97133.00
2023-04-01T02:13:49.916Z,97147.00
2023-04-01T02:15:24.322Z,97141.00
2023-04-01T02:17:02.151Z,97141.00
2023-04-01T02:18:38.342Z,97138.00
2023-04-01T02:20:18.271Z,97144.00
2023-04-01T02:21:57.504Z,97143.00
2023-04-01T02:23:30.077Z,97140.00
2023-04-01T02:25:10.569Z,97148.00
2023-04-01T02:26:45.711Z,97146.00
2023-04-01T02:28:22.111Z,97145.00
2023-04-01T02:29:55.976Z,97157.00
2023-04-01T02:31:29.938Z,97147.00
2023-04-01T02:33:05.933Z,97151.00
2023-04-01T02:34:39.646Z,97149.00
2023-04-01T02:36:15.490Z,97160.00
2023-04-01T02:37:52.239Z,97151.00
2023-04-01T02:39:26.483Z,97154.00
2023-04-01T02:41:04.504Z,97165.00
2023-04-01T02:42:38.192Z,97154.00
2023-04-01T02:44:13.323Z,97158.00
2023-04-01T02:45:46.453Z,97156.00
2023-04-01T02:47:19.800Z,97153.00
2023-04-01T02:48:53.076Z,97146.00
2023-04-01T02:50:25.360Z,97147.00
2023-04-01T02:51:58.455Z,97149.00
2023-04-01T02:53:31.515Z,97160.00
2023-04-01T02:55:05.698Z,97149.00
2023-04-01T02:56:42.815Z,97159.00
2023-04-01T02:58:16.255Z,97146.00
2023-04-01T02:59:49.483Z,97152.00
2023-04-01T03:01:23.870Z,97145.00
2023-04-01T03:02:57.630Z,97145.00
2023-04-01T03:04:31.009Z,97155.00
2023-04-01T03:06:07.137Z,97158.00
2023-04-01T03:07:41.096Z,97149.00
2023-04-01T03:09:13.266Z,97156.00
2023-04-01T03:10:46.309Z,97157.00
2023-04-01T03:12:21.237Z,97160.00
2023-04-01T03:13:57.533Z,97158.00
2023-04-01T03:15:31.179Z,97153.00
2023-04-01T03:17:04.450Z,97154.00
2023-04-01T03:18:37.511Z,97163.00
2023-04-01T03:20:12.944Z,97149.00
2023-04-01T03:21:46.000Z,97147.00
2023-04-01T03:23:20.558Z,97150.00
2023-04-01T03:24:53.670Z,97146.00
2023-04-01T03:26:28.736Z,97144.00
2023-04-01T03:28:03.249Z,97147.00
2023-04-01T03:29:35.719Z,97144.00
2023-04-01T03:31:09.559Z,97142.00
2023-04-01T03:32:49.160Z,97145.00
2023-04-01T03:34:22.232Z,97142.00
2023-04-01T03:35:55.573Z,97150.00
2023-04-01T03:37:28.701Z,97154.00
2023-04-01T03:39:00.827Z,97140.00
2023-04-01T03:40:44.647Z,97154.00
2023-04-01T03:42:18.489Z,97154.00
2023-04-01T03:43:52.883Z,97149.00
2023-04-01T03:45:26.443Z,97158.00
2023-04-01T03:46:59.698Z,97150.00
2023-04-01T03:48:42.501Z,97155.00
2023-04-01T03:50:15.621Z,97150.00
2023-04-01T03:51:48.127Z,97143.00
2023-04-01T03:53:21.660Z,97152.00
2023-04-01T03:54:54.373Z,97155.00
2023-04-01T03:56:28.048Z,97146.00
2023-04-01T03:58:02.851Z,97161.00
2023-04-01T03:59:37.495Z,97155.00
2023-04-01T04:01:22.048Z,97159.00
2023-04-01T04:02:57.841Z,97155.00
2023-04-01T04:04:36.911Z,97163.00
2023-04-01T04:06:13.283Z,97157.00
2023-04-01T04:07:46.410Z,97164.00
2023-04-01T04:09:19.462Z,97160.00
2023-04-01T04:10:57.590Z,97165.00
2023-04-01T04:12:30.736Z,97159.00
2023-04-01T04:14:03.849Z,97169.00
2023-04-01T04:15:38.239Z,97174.00
2023-04-01T04:17:16.880Z,97168.00
2023-04-01T04:18:51.867Z,97173.00
2023-04-01T04:20:25.341Z,97177.00
2023-04-01T04:21:58.558Z,97172.00
2023-04-01T04:23:34.281Z,97166.00
2023-04-01T04:25:08.902Z,97171.00
2023-04-01T04:26:43.282Z,97171.00
2023-04-01T04:28:15.373Z,97171.00
2023-04-01T04:29:48.793Z,97174.00
2023-04-01T04:31:25.777Z,97173.00
2023-04-01T04:33:00.401Z,97175.00
2023-04-01T04:34:34.107Z,97168.00
2023-04-01T04:36:08.508Z,97178.00
2023-04-01T04:37:41.678Z,97182.00
2023-04-01T04:39:14.803Z,97183.00
2023-04-01T04:40:49.654Z,97184.00
2023-04-01T04:42:22.861Z,97181.00
2023-04-01T04:44:00.013Z,97183.00
2023-04-01T04:45:33.979Z,97178.00
2023-04-01T04:47:09.059Z,97183.00
2023-04-01T04:48:44.675Z,97185.00
2023-04-01T04:50:18.186Z,97183.00
2023-04-01T04:51:51.615Z,97187.00
2023-04-01T04:53:27.044Z,97191.00
2023-04-01T04:55:00.305Z,97184.00
2023-04-01T04:56:33.930Z,97188.00
2023-04-01T04:58:11.861Z,97188.00
2023-04-01T04:59:48.460Z,97191.00
2023-04-01T05:01:40.985Z,97195.00
2023-04-01T05:03:16.328Z,97183.00
2023-04-01T05:04:49.885Z,97194.00
2023-04-01T05:06:23.784Z,97195.00
2023-04-01T05:07:57.127Z,97188.00
2023-04-01T05:09:30.197Z,97194.00
2023-04-01T05:11:04.959Z,97195.00
2023-04-01T05:12:40.320Z,97193.00
2023-04-01T05:14:16.878Z,97189.00
2023-04-01T05:15:56.412Z,97205.00
2023-04-01T05:17:29.576Z,97198.00
2023-04-01T05:19:04.037Z,97194.00
2023-04-01T05:20:37.575Z,97186.00
2023-04-01T05:22:11.295Z,97194.00
2023-04-01T05:23:45.114Z,97200.00
2023-04-01T05:25:18.321Z,97194.00
2023-04-01T05:26:51.430Z,97193.00
2023-04-01T05:28:24.850Z,97191.00
2023-04-01T05:29:58.141Z,97202.00
2023-04-01T05:31:47.396Z,97212.00
2023-04-01T05:33:20.814Z,97205.00
2023-04-01T05:34:55.789Z,97207.00
2023-04-01T05:36:29.009Z,97209.00
2023-04-01T05:38:03.066Z,97198.00
2023-04-01T05:39:39.316Z,97205.00
2023-04-01T05:41:12.534Z,97204.00
2023-04-01T05:42:49.489Z,97203.00
2023-04-01T05:44:23.683Z,97213.00
2023-04-01T05:46:25.921Z,97212.00
2023-04-01T05:48:06.798Z,97215.00
2023-04-01T05:49:45.337Z,97214.00
2023-04-01T05:51:20.021Z,97215.00
2023-04-01T05:52:53.542Z,97212.00
2023-04-01T05:54:26.840Z,97212.00
2023-04-01T05:56:04.791Z,97213.00
2023-04-01T05:57:42.738Z,97220.00
2023-04-01T05:59:16.080Z,97223.00
2023-04-01T06:00:59.063Z,97212.00
2023-04-01T06:02:35.582Z,97220.00
2023-04-01T06:04:14.635Z,97219.00
2023-04-01T06:05:48.066Z,97218.00
2023-04-01T06:07:22.541Z,97222.00
2023-04-01T06:08:58.896Z,97221.00
2023-04-01T06:10:49.539Z,97224.00
2023-04-01T06:13:02.438Z,97218.00
2023-04-01T06:14:53.541Z,97229.00
2023-04-01T06:16:41.708Z,97224.00
2023-04-01T06:18:46.984Z,97227.00
2023-04-01T06:20:33.646Z,97220.00
2023-04-01T06:23:02.093Z,97220.00
2023-04-01T06:25:00.455Z,97227.00
2023-04-01T06:26:41.208Z,97228.00
2023-04-01T06:29:02.290Z,97231.00
2023-04-01T06:30:43.048Z,97224.00
2023-04-01T06:32:40.895Z,97231.00
2023-04-01T06:34:44.931Z,97229.00
2023-04-01T06:36:47.635Z,97233.00
2023-04-01T06:38:43.292Z,97237.00
2023-04-01T06:40:47.626Z,97238.00
2023-04-01T06:43:02.031Z,97235.00
2023-04-01T06:45:11.342Z,97236.00
2023-04-01T06:47:20.540Z,97240.00
2023-04-01T06:49:43.263Z,97247.00
2023-04-01T06:51:53.618Z,97247.00
2023-04-01T06:53:58.765Z,97247.00
2023-04-01T06:56:01.417Z,97245.00
2023-04-01T06:58:02.382Z,97242.00
2023-04-01T06:59:39.326Z,97245.00
2023-04-01T07:01:21.543Z,97246.00
2023-04-01T07:03:06.627Z,97248.00
2023-04-01T07:04:45.417Z,97265.00
2023-04-01T07:06:31.998Z,97256.00
2023-04-01T07:08:12.012Z,97241.00
2023-04-01T07:09:54.719Z,97246.00
2023-04-01T07:11:39.981Z,97243.00
2023-04-01T07:13:54.214Z,97253.00
2023-04-01T07:15:35.453Z,97252.00
2023-04-01T07:17:19.580Z,97253.00
2023-04-01T07:18:59.795Z,97253.00
2023-04-01T07:20:41.014Z,97249.00
2023-04-01T07:22:30.990Z,97256.00
2023-04-01T07:24:18.709Z,97256.00
2023-04-01T07:26:13.059Z,97258.00
2023-04-01T07:28:18.485Z,97264.00
2023-04-01T07:29:58.616Z,97264.00
2023-04-01T07:32:15.647Z,97271.00
2023-04-01T07:34:03.498Z,97269.00
2023-04-01T07:35:47.993Z,97268.00
2023-04-01T07:37:30.773Z,97267.00
2023-04-01T07:39:26.001Z,97266.00
2023-04-01T07:41:26.873Z,97276.00
2023-04-01T07:43:39.384Z,97272.00
2023-04-01T07:45:42.999Z,97274.00
2023-04-01T07:47:49.201Z,97276.00
2023-04-01T07:49:33.176Z,97276.00
2023-04-01T07:51:18.039Z,97269.00
2023-04-01T07:53:10.108Z,97276.00
2023-04-01T07:54:50.077Z,97278.00
2023-04-01T07:56:32.212Z,97278.00
2023-04-01T07:58:16.578Z,97276.00
2023-04-01T08:00:03.665Z,97282.00
2023-04-01T08:02:12.567Z,97282.00
2023-04-01T08:04:11.727Z,97292.00
2023-04-01T08:05:57.662Z,97282.00
2023-04-01T08:07:46.952Z,97287.00
2023-04-01T08:09:49.195Z,97288.00
2023-04-01T08:12:00.605Z,97289.00
2023-04-01T08:14:05.810Z,97299.00
2023-04-01T08:16:14.941Z,97299.00
2023-04-01T08:18:09.794Z,97307.00
2023-04-01T08:20:04.228Z,97303.00
2023-04-01T08:21:47.752Z,97302.00
2023-04-01T08:23:26.111Z,97309.00
2023-04-01T08:25:04.284Z,97316.00
2023-04-01T08:26:46.047Z,97303.00
2023-04-01T08:28:29.908Z,97312.00
2023-04-01T08:30:19.700Z,97303.00
2023-04-01T08:31:58.655Z,97317.00
2023-04-01T08:33:33.515Z,97319.00
2023-04-01T08:35:29.313Z,97323.00
2023-04-01T08:37:11.717Z,97323.00
2023-04-01T08:38:51.173Z,97328.00
2023-04-01T08:40:57.715Z,97328.00
2023-04-01T08:43:05.832Z,97325.00
2023-04-01T08:45:14.409Z,97336.00
2023-04-01T08:47:26.506Z,97324.00
2023-04-01T08:49:13.000Z,97335.00
2023-04-01T08:51:29.030Z,97335.00
2023-04-01T08:53:12.614Z,97331.00
2023-04-01T08:55:33.089Z,97337.00
2023-04-01T08:57:20.239Z,97336.00
2023-04-01T08:59:52.774Z,97345.00
2023-04-01T09:02:17.733Z,97343.00
2023-04-01T09:04:28.170Z,97350.00
2023-04-01T09:06:33.653Z,97352.00
2023-04-01T09:08:30.591Z,97358.00
2023-04-01T09:10:58.661Z,97352.00
2023-04-01T09:13:27.788Z,97351.00
2023-04-01T09:15:38.682Z,97356.00
2023-04-01T09:17:52.928Z,97361.00
2023-04-01T09:19:52.272Z,97357.00
2023-04-01T09:22:01.070Z,97363.00
2023-04-01T09:23:55.671Z,97360.00
2023-04-01T09:26:02.625Z,97360.00
2023-04-01T09:27:46.362Z,97362.00
2023-04-01T09:29:42.396Z,97372.00
2023-04-01T09:32:02.021Z,97362.00
2023-04-01T09:34:41.160Z,97364.00
2023-04-01T09:36:35.428Z,97370.00
2023-04-01T09:38:26.010Z,97381.00
2023-04-01T09:40:19.040Z,97388.00
2023-04-01T09:42:19.967Z,97382.00
2023-04-01T09:44:16.740Z,97382.00
2023-04-01T09:46:21.395Z,97391.00
2023-04-01T09:48:17.274Z,97388.00
2023-04-01T09:50:26.571Z,97394.00
2023-04-01T09:52:32.138Z,97388.00
2023-04-01T09:54:29.520Z,97390.00
2023-04-01T09:56:47.492Z,97393.00
2023-04-01T09:59:20.521Z,97392.00
2023-04-01T10:02:09.553Z,97402.00
2023-04-01T10:04:25.784Z,97407.00
2023-04-01T10:07:01.240Z,97395.00
2023-04-01T10:09:12.491Z,97411.00
2023-04-01T10:11:23.776Z,97404.00
2023-04-01T10:13:28.067Z,97413.00
2023-04-01T10:16:02.167Z,97410.00
2023-04-01T10:18:15.146Z,97425.00
2023-04-01T10:21:00.947Z,97423.00
2023-04-01T10:23:29.893Z,97427.00
2023-04-01T10:25:59.779Z,97428.00
2023-04-01T10:28:10.167Z,97429.00
2023-04-01T10:30:58.325Z,97431.00
2023-04-01T10:33:20.317Z,97436.00
2023-04-01T10:35:37.321Z,97444.00
2023-04-01T10:37:36.850Z,97441.00
2023-04-01T10:39:49.052Z,97445.00
2023-04-01T10:42:16.747Z,97435.00
2023-04-01T10:45:05.961Z,97432.00
2023-04-01T10:47:53.981Z,97432.00
2023-04-01T10:50:12.284Z,97433.00
2023-04-01T10:52:43.318Z,97431.00
2023-04-01T10:54:49.383Z,97424.00
2023-04-01T10:56:47.553Z,97441.00
2023-04-01T10:59:30.227Z,97439.00
2023-04-01T11:02:09.976Z,97440.00
2023-04-01T11:05:08.360Z,97446.00
2023-04-01T11:07:46.554Z,97447.00
2023-04-01T11:10:03.524Z,97451.00
2023-04-01T11:12:12.262Z,97451.00
2023-04-01T11:14:46.333Z,97445.00
2023-04-01T11:17:08.349Z,97452.00
2023-04-01T11:19:40.911Z,97456.00
2023-04-01T11:21:54.452Z,97463.00
2023-04-01T11:24:06.093Z,97463.00
2023-04-01T11:26:04.613Z,97471.00
2023-04-01T11:28:29.519Z,97472.00
2023-04-01T11:30:28.060Z,97474.00
2023-04-01T11:32:21.516Z,97479.00
2023-04-01T11:34:04.831Z,97474.00
2023-04-01T11:36:20.057Z,97472.00
2023-04-01T11:38:04.880Z,97473.00
2023-04-01T11:40:13.146Z,97476.00
2023-04-01T11:42:26.580Z,97478.00
2023-04-01T11:44:22.348Z,97484.00
2023-04-01T11:46:45.007Z,97483.00
2023-04-01T11:48:53.762Z,97483.00
2023-04-01T11:50:47.073Z,97487.00
2023-04-01T11:52:57.089Z,97479.00
2023-04-01T11:54:48.451Z,97493.00
2023-04-01T11:56:46.559Z,97495.00
2023-04-01T11:58:46.820Z,97500.00
2023-04-01T12:01:01.441Z,97498.00
2023-04-01T12:02:50.642Z,97502.00
2023-04-01T12:04:57.882Z,97514.00
2023-04-01T12:06:44.067Z,97512.00
2023-04-01T12:08:35.974Z,97514.00
2023-04-01T12:10:22.848Z,97513.00
2023-04-01T12:12:19.509Z,97516.00
2023-04-01T12:14:04.984Z,97522.00
2023-04-01T12:15:58.676Z,97522.00
2023-04-01T12:17:47.118Z,97522.00
2023-04-01T12:19:34.724Z,97519.00
2023-04-01T12:21:24.603Z,97527.00
2023-04-01T12:23:15.643Z,97529.00
2023-04-01T12:24:54.838Z,97526.00
2023-04-01T12:27:01.690Z,97522.00
2023-04-01T12:28:56.211Z,97544.00
2023-04-01T12:31:05.677Z,97531.00
2023-04-01T12:32:51.846Z,97529.00
2023-04-01T12:34:59.362Z,97538.00
2023-04-01T12:36:55.957Z,97540.00
2023-04-01T12:38:43.174Z,97544.00
2023-04-01T12:40:34.071Z,97543.00
2023-04-01T12:42:29.666Z,97543.00
2023-04-01T12:44:31.714Z,97548.00
2023-04-01T12:46:18.051Z,97545.00
2023-04-01T12:48:41.909Z,97549.00
2023-04-01T12:51:03.379Z,97546.00
2023-04-01T12:52:52.851Z,97554.00
2023-04-01T12:55:20.798Z,97551.00
2023-04-01T12:57:09.124Z,97559.00
2023-04-01T12:59:24.126Z,97555.00
2023-04-01T13:01:25.418Z,97563.00
2023-04-01T13:03:25.332Z,97566.00
2023-04-01T13:05:34.139Z,97569.00
2023-04-01T13:07:39.825Z,97573.00
2023-04-01T13:09:26.760Z,97580.00
2023-04-01T13:11:15.730Z,97562.00
2023-04-01T13:13:21.895Z,97569.00
2023-04-01T13:15:27.041Z,97581.00
2023-04-01T13:17:15.118Z,97577.00
2023-04-01T13:19:00.922Z,97576.00
2023-04-01T13:20:51.016Z,97583.00
2023-04-01T13:22:35.475Z,97589.00
2023-04-01T13:24:26.393Z,97596.00
2023-04-01T13:26:14.900Z,97586.00
2023-04-01T13:27:57.119Z,97589.00
2023-04-01T13:29:37.402Z,97599.00
2023-04-01T13:31:31.436Z,97600.00
2023-04-01T13:33:30.464Z,97589.00
2023-04-01T13:35:23.041Z,97599.00
2023-04-01T13:37:17.921Z,97605.00
2023-04-01T13:39:25.043Z,97603.00
2023-04-01T13:41:13.261Z,97607.00
2023-04-01T13:42:55.817Z,97610.00
2023-04-01T13:44:38.731Z,97605.00
2023-04-01T13:46:56.380Z,97615.00
2023-04-01T13:48:47.583Z,97611.00
2023-04-01T13:50:52.144Z,97616.00
2023-04-01T13:53:09.123Z,97611.00
2023-04-01T13:55:24.062Z,97611.00
2023-04-01T13:57:18.757Z,97617.00
2023-04-01T13:59:41.893Z,97617.00
2023-04-01T14:01:24.050Z,97630.00
2023-04-01T14:03:32.247Z,97630.00
2023-04-01T14:05:44.765Z,97620.00
2023-04-01T14:07:52.080Z,97620.00
2023-04-01T14:10:01.332Z,97625.00
2023-04-01T14:11:46.947Z,97632.00
2023-04-01T14:13:35.214Z,97631.00
2023-04-01T14:15:39.792Z,97627.00
2023-04-01T14:17:39.658Z,97630.00
2023-04-01T14:19:33.470Z,97643.00
2023-04-01T14:21:29.238Z,97637.00
2023-04-01T14:23:32.566Z,97651.00
2023-04-01T14:25:48.780Z,97653.00
2023-04-01T14:27:47.910Z,97647.00
2023-04-01T14:29:35.449Z,97657.00
2023-04-01T14:31:32.561Z,97654.00
2023-04-01T14:33:37.559Z,97655.00
2023-04-01T14:35:37.623Z,97654.00
2023-04-01T14:37:29.056Z,97652.00
2023-04-01T14:39:31.309Z,97658.00
2023-04-01T14:41:20.951Z,97665.00
2023-04-01T14:43:39.371Z,97666.00
2023-04-01T14:45:47.773Z,97665.00
2023-04-01T14:47:48.371Z,97667.00
2023-04-01T14:49:32.471Z,97666.00
2023-04-01T14:51:18.172Z,97664.00
2023-04-01T14:53:11.023Z,97670.00
2023-04-01T14:54:48.534Z,97673.00
2023-04-01T14:56:41.877Z,97660.00
2023-04-01T14:58:18.104Z,97664.00
2023-04-01T15:00:01.597Z,97671.00
2023-04-01T15:01:49.405Z,97675.00
2023-04-01T15:03:31.300Z,97672.00
2023-04-01T15:05:18.168Z,97675.00
2023-04-01T15:07:11.205Z,97679.00
2023-04-01T15:08:58.612Z,97684.00
2023-04-01T15:11:14.885Z,97683.00
2023-04-01T15:13:00.723Z,97685.00
2023-04-01T15:14:57.727Z,97691.00
2023-04-01T15:16:43.474Z,97685.00
2023-04-01T15:18:31.720Z,97694.00
2023-04-01T15:20:31.692Z,97697.00
2023-04-01T15:22:34.746Z,97691.00
2023-04-01T15:24:17.335Z,97701.00
2023-04-01T15:26:28.168Z,97698.00
2023-04-01T15:28:11.406Z,97700.00
2023-04-01T15:30:05.977Z,97707.00
2023-04-01T15:31:49.022Z,97701.00
2023-04-01T15:33:56.282Z,97707.00
2023-04-01T15:35:44.765Z,97709.00
2023-04-01T15:37:34.854Z,97708.00
2023-04-01T15:39:17.713Z,97704.00
2023-04-01T15:41:04.900Z,97719.00
2023-04-01T15:42:57.506Z,97714.00
2023-04-01T15:44:55.062Z,97720.00
2023-04-01T15:46:46.619Z,97718.00
2023-04-01T15:48:38.292Z,97705.00
2023-04-01T15:51:03.878Z,97727.00
2023-04-01T15:52:52.290Z,97723.00
2023-04-01T15:54:53.518Z,97723.00
2023-04-01T15:56:47.030Z,97727.00
2023-04-01T15:58:50.440Z,97731.00
2023-04-01T16:00:31.032Z,97734.00
2023-04-01T16:02:22.146Z,97733.00
2023-04-01T16:04:09.274Z,97729.00
2023-04-01T16:06:01.820Z,97741.00
2023-04-01T16:08:04.107Z,97745.00
2023-04-01T16:09:57.995Z,97750.00
2023-04-01T16:11:45.004Z,97744.00
2023-04-01T16:13:35.616Z,97749.00
2023-04-01T16:15:26.466Z,97749.00
2023-04-01T16:17:18.820Z,97759.00
2023-04-01T16:19:34.197Z,97757.00
2023-04-01T16:21:16.947Z,97757.00
2023-04-01T16:23:03.850Z,97757.00
2023-04-01T16:24:46.600Z,97758.00
2023-04-01T16:26:30.511Z,97762.00
2023-04-01T16:28:22.030Z,97761.00
2023-04-01T16:30:04.982Z,97759.00
2023-04-01T16:31:48.602Z,97769.00
2023-04-01T16:33:34.135Z,97774.00
2023-04-01T16:35:27.920Z,97757.00
2023-04-01T16:37:14.069Z,97766.00
2023-04-01T16:38:57.826Z,97775.00
2023-04-01T16:40:46.748Z,97779.00
2023-04-01T16:42:40.938Z,97790.00
2023-04-01T16:44:22.470Z,97790.00
2023-04-01T16:46:15.598Z,97783.00
2023-04-01T16:47:54.928Z,97787.00
2023-04-01T16:49:38.586Z,97786.00
2023-04-01T16:51:18.247Z,97791.00
2023-04-01T16:53:03.545Z,97795.00
2023-04-01T16:54:47.515Z,97802.00
2023-04-01T16:56:25.402Z,97799.00
2023-04-01T16:58:02.698Z,97804.00
2023-04-01T16:59:40.560Z,97803.00
2023-04-01T17:01:23.810Z,97802.00
2023-04-01T17:03:12.957Z,97803.00
2023-04-01T17:04:50.064Z,97809.00
2023-04-01T17:06:38.577Z,97806.00
2023-04-01T17:08:30.347Z,97811.00
2023-04-01T17:10:34.369Z,97817.00
2023-04-01T17:12:20.923Z,97814.00
2023-04-01T17:14:11.549Z,97819.00
2023-04-01T17:15:59.808Z,97824.00
2023-04-01T17:17:47.440Z,97822.00
2023-04-01T17:19:47.217Z,97826.00
2023-04-01T17:21:27.497Z,97835.00
2023-04-01T17:23:07.213Z,97837.00
2023-04-01T17:25:05.519Z,97839.00
2023-04-01T17:26:52.086Z,97838.00
2023-04-01T17:28:46.839Z,97848.00
2023-04-01T17:30:29.933Z,97844.00
2023-04-01T17:32:13.659Z,97854.00
2023-04-01T17:34:22.078Z,97854.00
2023-04-01T17:36:04.282Z,97854.00
2023-04-01T17:37:53.902Z,97852.00
2023-04-01T17:39:58.484Z,97863.00
2023-04-01T17:41:49.015Z,97868.00
2023-04-01T17:43:41.407Z,97868.00
2023-04-01T17:45:26.763Z,97871.00
2023-04-01T17:47:30.567Z,97871.00
2023-04-01T17:49:25.523Z,97873.00
2023-04-01T17:51:19.253Z,97875.00
2023-04-01T17:53:13.809Z,97883.00
2023-04-01T17:54:55.257Z,97889.00
2023-04-01T17:56:43.766Z,97889.00
2023-04-01T17:58:23.583Z,97872.00
2023-04-01T18:00:05.512Z,97887.00
2023-04-01T18:01:59.319Z,97893.00
2023-04-01T18:04:10.605Z,97892.00
2023-04-01T18:06:04.767Z,97895.00
2023-04-01T18:08:10.406Z,97903.00
2023-04-01T18:10:01.896Z,97904.00
2023-04-01T18:11:53.556Z,97914.00
2023-04-01T18:14:17.705Z,97907.00
2023-04-01T18:16:11.794Z,97919.00
2023-04-01T18:18:05.051Z,97912.00
2023-04-01T18:19:54.559Z,97913.00
2023-04-01T18:21:44.949Z,97924.00
2023-04-01T18:23:31.593Z,97926.00
2023-04-01T18:25:23.348Z,97924.00
2023-04-01T18:27:06.631Z,97925.00
2023-04-01T18:28:46.360Z,97932.00
2023-04-01T18:30:24.317Z,97930.00
2023-04-01T18:32:17.348Z,97938.00
2023-04-01T18:34:02.876Z,97946.00
2023-04-01T18:35:54.131Z,97938.00
2023-04-01T18:37:34.757Z,97945.00
2023-04-01T18:39:16.775Z,97947.00
2023-04-01T18:40:56.501Z,97954.00
2023-04-01T18:42:45.296Z,97956.00
2023-04-01T18:44:31.290Z,97957.00
2023-04-01T18:46:18.736Z,97961.00
2023-04-01T18:48:08.701Z,97963.00
2023-04-01T18:49:50.409Z,97962.00
2023-04-01T18:51:37.755Z,97964.00
2023-04-01T18:53:24.163Z,97961.00
2023-04-01T18:55:28.482Z,97972.00
2023-04-01T18:57:10.235Z,97974.00
2023-04-01T18:58:52.444Z,97972.00
2023-04-01T19:00:34.874Z,97981.00
2023-04-01T19:02:28.703Z,97976.00
2023-04-01T19:04:15.414Z,97981.00
2023-04-01T19:05:52.425Z,97986.00
2023-04-01T19:07:44.756Z,97990.00
2023-04-01T19:09:26.550Z,97989.00
2023-04-01T19:11:11.954Z,97991.00
2023-04-01T19:13:04.428Z,97992.00
2023-04-01T19:14:55.711Z,97995.00
2023-04-01T19:16:51.410Z,97998.00
2023-04-01T19:18:56.907Z,97993.00
2023-04-01T19:20:39.930Z,98005.00
2023-04-01T19:22:43.209Z,98003.00
2023-04-01T19:24:47.814Z,98012.00
2023-04-01T19:26:30.788Z,98014.00
2023-04-01T19:28:22.697Z,98012.00
2023-04-01T19:30:21.316Z,98024.00
2023-04-01T19:32:12.768Z,98018.00
2023-04-01T19:34:04.983Z,98012.00
2023-04-01T19:35:46.989Z,98017.00
2023-04-01T19:37:34.006Z,98027.00
2023-04-01T19:39:28.725Z,98033.00
2023-04-01T19:41:26.327Z,98027.00
2023-04-01T19:43:09.147Z,98031.00
2023-04-01T19:45:00.640Z,98025.00
2023-04-01T19:46:41.925Z,98025.00
2023-04-01T19:48:43.522Z,98024.00
2023-04-01T19:50:36.789Z,98028.00
2023-04-01T19:52:19.721Z,98037.00
2023-04-01T19:54:05.866Z,98043.00
2023-04-01T19:55:50.197Z,98041.00
2023-04-01T19:57:37.226Z,98045.00
2023-04-01T19:59:22.346Z,98048.00
2023-04-01T20:01:00.865Z,98048.00
2023-04-01T20:02:58.042Z,98053.00
2023-04-01T20:04:40.851Z,98046.00
2023-04-01T20:06:26.360Z,98058.00
2023-04-01T20:08:10.641Z,98065.00
2023-04-01T20:10:04.019Z,98064.00
2023-04-01T20:11:52.286Z,98065.00
2023-04-01T20:13:41.374Z,98077.00
2023-04-01T20:15:32.564Z,98077.00
2023-04-01T20:17:22.577Z,98077.00
2023-04-01T20:19:01.350Z,98083.00
2023-04-01T20:20:37.322Z,98080.00
2023-04-01T20:22:30.780Z,98085.00
2023-04-01T20:24:19.277Z,98090.00
2023-04-01T20:25:57.941Z,98094.00
2023-04-01T20:27:37.693Z,98103.00
2023-04-01T20:29:37.671Z,98104.00
2023-04-01T20:31:29.477Z,98102.00
2023-04-01T20:33:34.812Z,98106.00
2023-04-01T20:35:45.697Z,98105.00
2023-04-01T20:37:36.658Z,98109.00
2023-04-01T20:40:08.643Z,98109.00
2023-04-01T20:42:02.293Z,98115.00
2023-04-01T20:43:52.306Z,98119.00
2023-04-01T20:45:42.007Z,98118.00
2023-04-01T20:47:36.538Z,98122.00
2023-04-01T20:49:38.991Z,98125.00
2023-04-01T20:51:18.249Z,98131.00
2023-04-01T20:53:03.411Z,98120.00
2023-04-01T20:55:03.143Z,98132.00
2023-04-01T20:56:57.421Z,98141.00
2023-04-01T20:58:45.085Z,98143.00
2023-04-01T21:00:38.278Z,98135.00
2023-04-01T21:02:31.675Z,98145.00
2023-04-01T21:04:29.835Z,98142.00
2023-04-01T21:06:32.562Z,98137.00
2023-04-01T21:08:16.619Z,98139.00
2023-04-01T21:10:14.523Z,98149.00
2023-04-01T21:11:58.243Z,98150.00
2023-04-01T21:13:56.993Z,98156.00
2023-04-01T21:15:49.961Z,98156.00
2023-04-01T21:17:41.696Z,98170.00
2023-04-01T21:19:34.765Z,98170.00
2023-04-01T21:21:52.246Z,98165.00
2023-04-01T21:23:43.997Z,98167.00
2023-04-01T21:25:31.519Z,98176.00
2023-04-01T21:27:20.701Z,98181.00
2023-04-01T21:29:34.820Z,98185.00
2023-04-01T21:31:29.502Z,98183.00
2023-04-01T21:33:26.367Z,98184.00
2023-04-01T21:35:09.065Z,98189.00